Woodburn, Iowa
Current Conditions -  °F | °C
As of 1:15 AM on Saturday 20 Dec 2014 (Local Time) from KI75 Reporting Station
Drizzle Drizzle  
Wind Chill: 23°   Ceiling: 700
Heat Index: 32°   Visibility: 5mi
Dew Point: 31°   Wind: 12mph
Humidity: 97%   Direction: 190°S
Pressure: 30.18"   Gusts: NA
Location:  41.01°N, 93.6°W
Report Text: KI75 200715Z AUTO 19010KT 5SM -DZ BKN007 OVC013 00/00 A3018 RMK AO2 T00011003
Loading
Personal Weather Stations






























Interactive Weather Map New forecast layout! Learn more

10-Day Weather Forecast

Advertisements
Track Severe Weather on mobile